Latest Weather Observations for Warburto Point

IDS60801

Issued at 7:31 am CST Saturday 25 June 2016 (issued every 30 minutes, with the page automatically refreshed every 10 minutes)

About weather observations | Map of weather stations | Latest weather observations for SA | Other Formats
Station Details ID: 022053 Name: WARBURTO POINT Lat: -34.00 Lon: 137.53 Height: 1.0 m
Data from the previous 72 hours. | See also: Recent months for locations in South Australia
Date/Time
CST
Temp
°C
App
Temp
°C
Dew
Point
°C
Rel
Hum
%
Delta-T
°C
Wind Press
QNH
hPa
Press
MSL
hPa
Rain since
9am
mm
Dir  Spd
km/h
Gust
km/h
Spd
kts
Gust
kts
25/07:30am - - - - - NE 6 7 3 4 - - -
25/07:00am - - - - - NNE 9 11 5 6 - - -
25/06:30am - - - - - ENE 9 13 5 7 - - -
25/06:00am - - - - - N 9 11 5 6 - - -
25/05:30am - - - - - NE 11 13 6 7 - - -
25/05:00am - - - - - NE 13 17 7 9 - - -
25/04:30am - - - - - ENE 6 13 3 7 - - -
25/04:00am - - - - - E 9 15 5 8 - - -
25/03:30am - - - - - ESE 9 11 5 6 - - -
25/03:00am - - - - - E 6 9 3 5 - - -
25/02:30am - - - - - N 11 13 6 7 - - -
25/02:00am - - - - - N 13 17 7 9 - - -
25/01:30am - - - - - N 13 15 7 8 - - -
25/01:00am - - - - - N 11 13 6 7 - - -
25/12:30am - - - - - NNE 11 13 6 7 - - -
25/12:00am - - - - - E 13 17 7 9 - - -
 
Date/Time
CST
Temp
°C
App
Temp
°C
Dew
Point
°C
Rel
Hum
%
Delta-T
°C
Wind Press
QNH
hPa
Press
MSL
hPa
Rain since
9am
mm
Dir  Spd
km/h
Gust
km/h
Spd
kts
Gust
kts
24/11:30pm - - - - - E 4 7 2 4 - - -
24/11:00pm - - - - - NNE 9 11 5 6 - - -
24/10:30pm - - - - - NE 7 9 4 5 - - -
24/10:00pm - - - - - SE 9 13 5 7 - - -
24/09:30pm - - - - - CALM 0 0 0 0 - - -
24/09:00pm - - - - - E 11 13 6 7 - - -
24/08:30pm - - - - - ESE 13 15 7 8 - - -
24/08:00pm - - - - - ESE 15 20 8 11 - - -
24/07:30pm - - - - - SSE 17 22 9 12 - - -
24/07:00pm - - - - - W 24 32 13 17 - - -
24/06:35pm - - - - - SSW 11 37 6 20 - - -
24/06:30pm - - - - - S 4 13 2 7 - - -
24/06:00pm - - - - - W 17 24 9 13 - - -
24/05:30pm - - - - - SW 17 24 9 13 - - -
24/05:00pm - - - - - SW 19 26 10 14 - - -
24/04:30pm - - - - - SW 22 32 12 17 - - -
24/04:03pm - - - - - SSW 28 46 15 25 - - -
24/04:00pm - - - - - SSW 24 46 13 25 - - -
24/03:30pm - - - - - SSW 32 46 17 25 - - -
24/03:00pm - - - - - SW 28 35 15 19 - - -
24/02:30pm - - - - - SW 24 33 13 18 - - -
24/02:00pm - - - - - SSW 28 35 15 19 - - -
24/01:30pm - - - - - SSW 30 39 16 21 - - -
24/01:00pm - - - - - SSW 37 50 20 27 - - -
24/12:30pm - - - - - SW 32 39 17 21 - - -
24/12:00pm - - - - - SSW 32 39 17 21 - - -
24/11:30am - - - - - SW 33 52 18 28 - - -
24/11:27am - - - - - SW 30 48 16 26 - - -
24/11:00am - - - - - SW 39 50 21 27 - - -
24/10:47am - - - - - SSW 35 57 19 31 - - -
24/10:30am - - - - - SW 37 54 20 29 - - -
24/10:00am - - - - - SW 35 48 19 26 - - -
24/09:30am - - - - - SW 39 52 21 28 - - -
24/09:04am - - - - - SW 35 54 19 29 - - -
24/09:00am - - - - - SW 39 54 21 29 - - -
24/08:30am - - - - - SW 41 54 22 29 - - -
24/08:07am - - - - - WSW 41 59 22 32 - - -
24/08:00am - - - - - SW 44 59 24 32 - - -
24/07:30am - - - - - SW 46 72 25 39 - - -
24/07:00am - - - - - SW 52 78 28 42 - - -
24/06:31am - - - - - SW 50 72 27 39 - - -
24/06:30am - - - - - SW 50 72 27 39 - - -
24/06:26am - - - - - SW 43 72 23 39 - - -
24/06:24am - - - - - SW 39 65 21 35 - - -
24/06:00am - - - - - SW 39 48 21 26 - - -
24/05:38am - - - - - SW 46 65 25 35 - - -
24/05:30am - - - - - SW 48 63 26 34 - - -
24/05:00am - - - - - SW 54 82 29 44 - - -
24/04:31am - - - - - SW 48 67 26 36 - - -
24/04:30am - - - - - SW 48 61 26 33 - - -
24/04:00am - - - - - SW 52 70 28 38 - - -
24/03:36am - - - - - WSW 46 65 25 35 - - -
24/03:30am - - - - - WSW 44 59 24 32 - - -
24/03:00am - - - - - WSW 46 67 25 36 - - -
24/02:44am - - - - - WSW 46 74 25 40 - - -
24/02:30am - - - - - WSW 44 59 24 32 - - -
24/02:00am - - - - - W 44 63 24 34 - - -
24/01:30am - - - - - W 50 65 27 35 - - -
24/01:13am - - - - - W 46 70 25 38 - - -
24/01:00am - - - - - W 44 61 24 33 - - -
24/12:59am - - - - - W 43 61 23 33 - - -
24/12:30am - - - - - W 35 46 19 25 - - -
24/12:00am - - - - - W 37 48 20 26 - - -
 
Date/Time
CST
Temp
°C
App
Temp
°C
Dew
Point
°C
Rel
Hum
%
Delta-T
°C
Wind Press
QNH
hPa
Press
MSL
hPa
Rain since
9am
mm
Dir  Spd
km/h
Gust
km/h
Spd
kts
Gust
kts
23/11:30pm - - - - - W 41 52 22 28 - - -
23/11:00pm - - - - - W 43 56 23 30 - - -
23/09:30pm - - - - - W 43 56 23 30 - - -
23/09:00pm - - - - - W 43 59 23 32 - - -
23/08:30pm - - - - - WSW 39 50 21 27 - - -
23/08:00pm - - - - - WSW 48 61 26 33 - - -
23/07:30pm - - - - - WSW 44 59 24 32 - - -
23/07:00pm - - - - - WSW 46 54 25 29 - - -
23/06:30pm - - - - - W 44 56 24 30 - - -
23/06:00pm - - - - - WSW 39 50 21 27 - - -
23/05:49pm - - - - - SW 43 59 23 32 - - -
23/05:38pm - - - - - SW 54 70 29 38 - - -
23/05:30pm - - - - - WSW 44 67 24 36 - - -
23/05:28pm - - - - - W 43 56 23 30 - - -
23/05:00pm - - - - - WSW 32 46 17 25 - - -
23/04:30pm - - - - - WNW 35 48 19 26 - - -
23/04:00pm - - - - - W 41 48 22 26 - - -
23/03:30pm - - - - - W 44 57 24 31 - - -
23/03:00pm - - - - - WNW 43 54 23 29 - - -
23/02:30pm - - - - - WNW 41 54 22 29 - - -
23/02:00pm - - - - - WNW 44 57 24 31 - - -
23/01:30pm - - - - - WNW 35 43 19 23 - - -
23/01:00pm - - - - - W 37 46 20 25 - - -
23/12:30pm - - - - - W 35 46 19 25 - - -
23/12:03pm - - - - - W 43 63 23 34 - - -
23/12:00pm - - - - - WNW 39 56 21 30 - - -
23/11:55am - - - - - NW 39 50 21 27 - - -
23/11:30am - - - - - NW 43 54 23 29 - - -
23/11:00am - - - - - NNW 48 59 26 32 - - -
23/10:30am - - - - - NNW 48 57 26 31 - - -
23/10:00am - - - - - NNW 48 61 26 33 - - -
23/09:30am - - - - - NNW 48 59 26 32 - - -
23/09:00am - - - - - NW 46 63 25 34 - - -
23/08:30am - - - - - NW 50 61 27 33 - - -
23/08:00am - - - - - NNW 46 56 25 30 - - -
23/07:30am - - - - - NNW 46 56 25 30 - - -
23/07:00am - - - - - NNW 43 56 23 30 - - -
23/06:30am - - - - - NNW 43 52 23 28 - - -
23/06:00am - - - - - NNW 43 52 23 28 - - -
23/05:30am - - - - - NNW 44 56 24 30 - - -
23/05:00am - - - - - NNW 41 52 22 28 - - -
23/04:30am - - - - - NW 39 48 21 26 - - -
23/04:00am - - - - - NW 37 48 20 26 - - -
23/03:30am - - - - - NNW 37 48 20 26 - - -
23/03:00am - - - - - NW 35 46 19 25 - - -
23/02:30am - - - - - NW 39 46 21 25 - - -
23/02:00am - - - - - NNW 39 46 21 25 - - -
23/01:30am - - - - - NW 39 48 21 26 - - -
23/01:00am - - - - - NNW 37 43 20 23 - - -
23/12:30am - - - - - NW 35 43 19 23 - - -
23/12:00am - - - - - NW 37 44 20 24 - - -
 
Date/Time
CST
Temp
°C
App
Temp
°C
Dew
Point
°C
Rel
Hum
%
Delta-T
°C
Wind Press
QNH
hPa
Press
MSL
hPa
Rain since
9am
mm
Dir  Spd
km/h
Gust
km/h
Spd
kts
Gust
kts
22/11:30pm - - - - - NNW 35 41 19 22 - - -
22/11:00pm - - - - - NW 33 39 18 21 - - -
22/10:30pm - - - - - NNW 35 43 19 23 - - -
22/10:00pm - - - - - NW 32 37 17 20 - - -
22/09:30pm - - - - - NNW 32 39 17 21 - - -
22/09:00pm - - - - - NW 30 35 16 19 - - -
22/08:30pm - - - - - NW 28 32 15 17 - - -
22/08:00pm - - - - - NW 26 33 14 18 - - -
22/07:46pm - - - - - WNW 39 57 21 31 - - -
22/07:30pm - - - - - NW 39 50 21 27 - - -
22/07:00pm - - - - - NW 28 35 15 19 - - -
22/06:30pm - - - - - NW 30 35 16 19 - - -
22/06:03pm - - - - - WNW 35 54 19 29 - - -
22/06:00pm - - - - - WNW 39 54 21 29 - - -
22/05:53pm - - - - - WNW 43 54 23 29 - - -
22/05:30pm - - - - - WNW 26 33 14 18 - - -
22/05:00pm - - - - - WNW 26 33 14 18 - - -
22/04:30pm - - - - - NW 20 26 11 14 - - -
22/04:00pm - - - - - NW 19 22 10 12 - - -
22/03:30pm - - - - - WNW 22 28 12 15 - - -
22/03:00pm - - - - - W 22 30 12 16 - - -
22/02:30pm - - - - - W 30 37 16 20 - - -
22/02:00pm - - - - - NW 22 28 12 15 - - -
22/01:30pm - - - - - NW 26 30 14 16 - - -
22/01:00pm - - - - - NW 24 30 13 16 - - -
22/12:30pm - - - - - NW 28 33 15 18 - - -
22/12:00pm - - - - - NW 30 35 16 19 - - -
22/11:30am - - - - - NW 30 35 16 19 - - -
22/11:00am - - - - - NW 28 32 15 17 - - -
22/10:30am - - - - - NW 26 32 14 17 - - -
22/10:00am - - - - - NW 24 30 13 16 - - -
22/09:30am - - - - - WNW 20 26 11 14 - - -
22/09:00am - - - - - WNW 20 28 11 15 - - -
22/08:30am - - - - - W 22 30 12 16 - - -
22/08:00am - - - - - W 26 32 14 17 - - -

Other Formats:

Comma delimited format used in spreadsheet applications
http://www.bom.gov.au/fwo/IDS60801/IDS60801.94666.axf

JavaScript Object Notation format (JSON) in row-major order
http://www.bom.gov.au/fwo/IDS60801/IDS60801.94666.json